sensor_id;sensor_type;location;lat;lon;timestamp;P1;durP1;ratioP1;P2;durP2;ratioP2
17524;SDS011;40431;52.198;9.902;2023-08-06T00:01:34;3.60;;;3.40;;
17524;SDS011;40431;52.198;9.902;2023-08-06T00:04:00;3.83;;;3.23;;
17524;SDS011;40431;52.198;9.902;2023-08-06T00:06:27;4.27;;;3.97;;
17524;SDS011;40431;52.198;9.902;2023-08-06T00:08:54;3.10;;;2.90;;
17524;SDS011;40431;52.198;9.902;2023-08-06T00:11:21;3.30;;;3.10;;
17524;SDS011;40431;52.198;9.902;2023-08-06T00:13:47;3.40;;;3.13;;
17524;SDS011;40431;52.198;9.902;2023-08-06T00:16:14;3.60;;;3.30;;
17524;SDS011;40431;52.198;9.902;2023-08-06T00:18:40;5.77;;;3.00;;
17524;SDS011;40431;52.198;9.902;2023-08-06T00:21:07;3.77;;;3.47;;
17524;SDS011;40431;52.198;9.902;2023-08-06T00:23:33;4.13;;;3.07;;
17524;SDS011;40431;52.198;9.902;2023-08-06T00:26:01;4.17;;;3.67;;
17524;SDS011;40431;52.198;9.902;2023-08-06T00:28:27;3.83;;;3.10;;
17524;SDS011;40431;52.198;9.902;2023-08-06T00:30:54;3.60;;;3.10;;
17524;SDS011;40431;52.198;9.902;2023-08-06T00:33:21;3.57;;;3.10;;
17524;SDS011;40431;52.198;9.902;2023-08-06T00:35:47;4.00;;;3.70;;
17524;SDS011;40431;52.198;9.902;2023-08-06T00:38:14;4.03;;;3.67;;
17524;SDS011;40431;52.198;9.902;2023-08-06T00:40:40;3.93;;;3.63;;
17524;SDS011;40431;52.198;9.902;2023-08-06T00:43:08;4.00;;;3.70;;
17524;SDS011;40431;52.198;9.902;2023-08-06T00:45:35;3.50;;;3.03;;
17524;SDS011;40431;52.198;9.902;2023-08-06T00:48:03;3.60;;;3.30;;
17524;SDS011;40431;52.198;9.902;2023-08-06T00:50:30;3.77;;;3.53;;
17524;SDS011;40431;52.198;9.902;2023-08-06T00:52:57;8.07;;;4.40;;
17524;SDS011;40431;52.198;9.902;2023-08-06T00:55:24;6.67;;;3.77;;
17524;SDS011;40431;52.198;9.902;2023-08-06T00:57:51;3.70;;;3.40;;
17524;SDS011;40431;52.198;9.902;2023-08-06T01:00:22;4.60;;;4.20;;
17524;SDS011;40431;52.198;9.902;2023-08-06T01:02:50;4.57;;;4.17;;
17524;SDS011;40431;52.198;9.902;2023-08-06T01:05:16;6.43;;;4.17;;
17524;SDS011;40431;52.198;9.902;2023-08-06T01:07:44;4.17;;;3.83;;
17524;SDS011;40431;52.198;9.902;2023-08-06T01:10:23;3.97;;;3.60;;
17524;SDS011;40431;52.198;9.902;2023-08-06T01:13:02;7.07;;;4.53;;
17524;SDS011;40431;52.198;9.902;2023-08-06T01:15:38;3.93;;;3.57;;
17524;SDS011;40431;52.198;9.902;2023-08-06T01:18:10;5.90;;;4.30;;
17524;SDS011;40431;52.198;9.902;2023-08-06T01:20:38;11.00;;;4.07;;
17524;SDS011;40431;52.198;9.902;2023-08-06T01:23:04;4.07;;;3.67;;
17524;SDS011;40431;52.198;9.902;2023-08-06T01:25:33;7.27;;;3.47;;
17524;SDS011;40431;52.198;9.902;2023-08-06T01:28:03;5.57;;;3.73;;
17524;SDS011;40431;52.198;9.902;2023-08-06T01:30:37;3.83;;;3.53;;
17524;SDS011;40431;52.198;9.902;2023-08-06T01:33:07;5.47;;;3.50;;
17524;SDS011;40431;52.198;9.902;2023-08-06T01:35:40;3.40;;;3.20;;
17524;SDS011;40431;52.198;9.902;2023-08-06T01:38:08;3.70;;;3.40;;
17524;SDS011;40431;52.198;9.902;2023-08-06T01:40:35;4.30;;;3.37;;
17524;SDS011;40431;52.198;9.902;2023-08-06T01:43:01;4.87;;;2.77;;
17524;SDS011;40431;52.198;9.902;2023-08-06T01:45:27;4.27;;;3.87;;
17524;SDS011;40431;52.198;9.902;2023-08-06T01:47:54;3.90;;;3.07;;
17524;SDS011;40431;52.198;9.902;2023-08-06T01:50:20;3.47;;;3.17;;
17524;SDS011;40431;52.198;9.902;2023-08-06T01:52:48;3.63;;;3.37;;
17524;SDS011;40431;52.198;9.902;2023-08-06T01:55:14;5.47;;;3.87;;
17524;SDS011;40431;52.198;9.902;2023-08-06T01:57:41;3.87;;;3.57;;
17524;SDS011;40431;52.198;9.902;2023-08-06T02:00:07;8.10;;;3.30;;
17524;SDS011;40431;52.198;9.902;2023-08-06T02:02:34;4.17;;;3.53;;
17524;SDS011;40431;52.198;9.902;2023-08-06T02:05:01;9.43;;;4.47;;
17524;SDS011;40431;52.198;9.902;2023-08-06T02:07:27;3.27;;;3.07;;
17524;SDS011;40431;52.198;9.902;2023-08-06T02:09:55;4.43;;;4.03;;
17524;SDS011;40431;52.198;9.902;2023-08-06T02:12:21;4.27;;;3.50;;
17524;SDS011;40431;52.198;9.902;2023-08-06T02:14:47;5.97;;;3.83;;
17524;SDS011;40431;52.198;9.902;2023-08-06T02:17:14;7.03;;;3.30;;
17524;SDS011;40431;52.198;9.902;2023-08-06T02:19:40;4.20;;;3.90;;
17524;SDS011;40431;52.198;9.902;2023-08-06T02:22:08;4.27;;;3.87;;
17524;SDS011;40431;52.198;9.902;2023-08-06T02:24:34;4.50;;;3.47;;
17524;SDS011;40431;52.198;9.902;2023-08-06T02:27:02;4.63;;;4.23;;
17524;SDS011;40431;52.198;9.902;2023-08-06T02:29:28;4.53;;;3.80;;
17524;SDS011;40431;52.198;9.902;2023-08-06T02:31:56;4.50;;;4.20;;
17524;SDS011;40431;52.198;9.902;2023-08-06T02:34:22;4.13;;;3.83;;
17524;SDS011;40431;52.198;9.902;2023-08-06T02:36:49;4.03;;;3.73;;
17524;SDS011;40431;52.198;9.902;2023-08-06T02:39:15;4.17;;;3.77;;
17524;SDS011;40431;52.198;9.902;2023-08-06T02:41:41;4.23;;;3.83;;
17524;SDS011;40431;52.198;9.902;2023-08-06T02:44:09;3.50;;;3.20;;
17524;SDS011;40431;52.198;9.902;2023-08-06T02:46:35;6.13;;;5.67;;
17524;SDS011;40431;52.198;9.902;2023-08-06T02:49:02;3.87;;;3.50;;
17524;SDS011;40431;52.198;9.902;2023-08-06T02:51:28;3.73;;;3.43;;
17524;SDS011;40431;52.198;9.902;2023-08-06T02:53:54;4.43;;;2.90;;
17524;SDS011;40431;52.198;9.902;2023-08-06T02:56:21;6.97;;;3.47;;
17524;SDS011;40431;52.198;9.902;2023-08-06T02:58:47;4.07;;;3.50;;
17524;SDS011;40431;52.198;9.902;2023-08-06T03:01:15;3.80;;;3.50;;
17524;SDS011;40431;52.198;9.902;2023-08-06T03:03:41;3.40;;;3.00;;
17524;SDS011;40431;52.198;9.902;2023-08-06T03:06:08;3.60;;;3.30;;
17524;SDS011;40431;52.198;9.902;2023-08-06T03:08:34;3.73;;;3.43;;
17524;SDS011;40431;52.198;9.902;2023-08-06T03:11:01;7.30;;;3.93;;
17524;SDS011;40431;52.198;9.902;2023-08-06T03:13:27;3.50;;;3.30;;
17524;SDS011;40431;52.198;9.902;2023-08-06T03:15:54;4.00;;;3.80;;
17524;SDS011;40431;52.198;9.902;2023-08-06T03:18:23;4.87;;;3.83;;
17524;SDS011;40431;52.198;9.902;2023-08-06T03:20:50;7.30;;;4.13;;
17524;SDS011;40431;52.198;9.902;2023-08-06T03:23:17;4.27;;;3.87;;
17524;SDS011;40431;52.198;9.902;2023-08-06T03:25:44;4.17;;;3.87;;
17524;SDS011;40431;52.198;9.902;2023-08-06T03:28:11;4.70;;;4.30;;
17524;SDS011;40431;52.198;9.902;2023-08-06T03:30:37;4.57;;;3.50;;
17524;SDS011;40431;52.198;9.902;2023-08-06T03:33:04;4.47;;;4.07;;
17524;SDS011;40431;52.198;9.902;2023-08-06T03:35:32;3.53;;;3.33;;
17524;SDS011;40431;52.198;9.902;2023-08-06T03:37:58;4.63;;;4.27;;
17524;SDS011;40431;52.198;9.902;2023-08-06T03:40:24;4.63;;;4.23;;
17524;SDS011;40431;52.198;9.902;2023-08-06T03:42:51;4.93;;;4.53;;
17524;SDS011;40431;52.198;9.902;2023-08-06T03:45:17;5.00;;;4.50;;
17524;SDS011;40431;52.198;9.902;2023-08-06T03:47:44;6.30;;;5.80;;
17524;SDS011;40431;52.198;9.902;2023-08-06T03:50:10;6.03;;;5.07;;
17524;SDS011;40431;52.198;9.902;2023-08-06T03:52:38;5.57;;;5.17;;
17524;SDS011;40431;52.198;9.902;2023-08-06T03:55:04;5.60;;;5.10;;
17524;SDS011;40431;52.198;9.902;2023-08-06T03:57:31;5.17;;;4.77;;
17524;SDS011;40431;52.198;9.902;2023-08-06T03:59:57;5.57;;;5.17;;
17524;SDS011;40431;52.198;9.902;2023-08-06T04:02:23;8.13;;;5.63;;
17524;SDS011;40431;52.198;9.902;2023-08-06T04:04:49;5.60;;;5.20;;
17524;SDS011;40431;52.198;9.902;2023-08-06T04:07:18;6.60;;;4.90;;
17524;SDS011;40431;52.198;9.902;2023-08-06T04:09:53;4.87;;;4.47;;
17524;SDS011;40431;52.198;9.902;2023-08-06T04:12:20;4.47;;;4.07;;
17524;SDS011;40431;52.198;9.902;2023-08-06T04:14:47;4.43;;;4.07;;
17524;SDS011;40431;52.198;9.902;2023-08-06T04:17:13;4.60;;;4.20;;
17524;SDS011;40431;52.198;9.902;2023-08-06T04:19:39;4.77;;;4.20;;
17524;SDS011;40431;52.198;9.902;2023-08-06T04:22:06;5.20;;;4.80;;
17524;SDS011;40431;52.198;9.902;2023-08-06T04:24:32;6.27;;;4.80;;
17524;SDS011;40431;52.198;9.902;2023-08-06T04:27:00;6.43;;;5.30;;
17524;SDS011;40431;52.198;9.902;2023-08-06T04:29:26;4.80;;;4.40;;
17524;SDS011;40431;52.198;9.902;2023-08-06T04:31:53;5.60;;;5.10;;
17524;SDS011;40431;52.198;9.902;2023-08-06T04:34:19;5.37;;;4.97;;
17524;SDS011;40431;52.198;9.902;2023-08-06T04:36:45;5.50;;;5.00;;
17524;SDS011;40431;52.198;9.902;2023-08-06T04:39:12;5.30;;;4.90;;
17524;SDS011;40431;52.198;9.902;2023-08-06T04:41:38;5.20;;;4.80;;
17524;SDS011;40431;52.198;9.902;2023-08-06T04:44:06;5.13;;;4.63;;
17524;SDS011;40431;52.198;9.902;2023-08-06T04:46:32;5.27;;;4.80;;
17524;SDS011;40431;52.198;9.902;2023-08-06T04:48:59;6.10;;;4.90;;
17524;SDS011;40431;52.198;9.902;2023-08-06T04:51:25;6.00;;;5.43;;
17524;SDS011;40431;52.198;9.902;2023-08-06T04:53:51;5.63;;;5.17;;
17524;SDS011;40431;52.198;9.902;2023-08-06T04:56:18;5.70;;;5.20;;
17524;SDS011;40431;52.198;9.902;2023-08-06T04:58:44;6.63;;;6.13;;
17524;SDS011;40431;52.198;9.902;2023-08-06T05:01:12;5.33;;;5.03;;
17524;SDS011;40431;52.198;9.902;2023-08-06T05:03:38;5.70;;;5.20;;
17524;SDS011;40431;52.198;9.902;2023-08-06T05:06:04;5.83;;;5.43;;
17524;SDS011;40431;52.198;9.902;2023-08-06T05:08:31;5.77;;;5.30;;
17524;SDS011;40431;52.198;9.902;2023-08-06T05:10:57;6.23;;;5.63;;
17524;SDS011;40431;52.198;9.902;2023-08-06T05:13:24;6.50;;;6.00;;
17524;SDS011;40431;52.198;9.902;2023-08-06T05:15:53;6.30;;;5.80;;
17524;SDS011;40431;52.198;9.902;2023-08-06T05:18:20;6.37;;;5.87;;
17524;SDS011;40431;52.198;9.902;2023-08-06T05:20:47;5.90;;;5.50;;
17524;SDS011;40431;52.198;9.902;2023-08-06T05:23:13;6.63;;;6.03;;
17524;SDS011;40431;52.198;9.902;2023-08-06T05:25:40;5.87;;;5.30;;
17524;SDS011;40431;52.198;9.902;2023-08-06T05:28:06;6.73;;;6.13;;
17524;SDS011;40431;52.198;9.902;2023-08-06T05:30:33;8.77;;;5.83;;
17524;SDS011;40431;52.198;9.902;2023-08-06T05:33:02;7.17;;;5.87;;
17524;SDS011;40431;52.198;9.902;2023-08-06T05:35:29;5.70;;;5.17;;
17524;SDS011;40431;52.198;9.902;2023-08-06T05:37:56;8.23;;;6.47;;
17524;SDS011;40431;52.198;9.902;2023-08-06T05:40:22;6.03;;;5.43;;
17524;SDS011;40431;52.198;9.902;2023-08-06T05:42:50;6.40;;;5.90;;
17524;SDS011;40431;52.198;9.902;2023-08-06T05:45:16;6.37;;;5.87;;
17524;SDS011;40431;52.198;9.902;2023-08-06T05:47:43;5.83;;;5.40;;
17524;SDS011;40431;52.198;9.902;2023-08-06T05:50:10;6.20;;;5.60;;
17524;SDS011;40431;52.198;9.902;2023-08-06T05:52:38;5.83;;;5.43;;
17524;SDS011;40431;52.198;9.902;2023-08-06T05:55:04;6.00;;;5.47;;
17524;SDS011;40431;52.198;9.902;2023-08-06T05:57:31;5.97;;;5.47;;
17524;SDS011;40431;52.198;9.902;2023-08-06T05:59:58;4.60;;;4.20;;
17524;SDS011;40431;52.198;9.902;2023-08-06T06:02:24;4.57;;;4.17;;
17524;SDS011;40431;52.198;9.902;2023-08-06T06:04:50;4.07;;;3.67;;
17524;SDS011;40431;52.198;9.902;2023-08-06T06:07:17;3.57;;;3.27;;
17524;SDS011;40431;52.198;9.902;2023-08-06T06:09:44;4.53;;;4.20;;
17524;SDS011;40431;52.198;9.902;2023-08-06T06:12:11;3.60;;;3.30;;
17524;SDS011;40431;52.198;9.902;2023-08-06T06:14:37;4.07;;;3.57;;
17524;SDS011;40431;52.198;9.902;2023-08-06T06:17:04;3.80;;;3.50;;
17524;SDS011;40431;52.198;9.902;2023-08-06T06:19:30;4.57;;;4.20;;
17524;SDS011;40431;52.198;9.902;2023-08-06T06:21:56;4.10;;;3.70;;
17524;SDS011;40431;52.198;9.902;2023-08-06T06:24:23;4.33;;;4.03;;
17524;SDS011;40431;52.198;9.902;2023-08-06T06:26:51;4.83;;;4.00;;
17524;SDS011;40431;52.198;9.902;2023-08-06T06:29:17;4.50;;;4.10;;
17524;SDS011;40431;52.198;9.902;2023-08-06T06:31:43;3.90;;;3.60;;
17524;SDS011;40431;52.198;9.902;2023-08-06T06:34:10;3.97;;;3.57;;
17524;SDS011;40431;52.198;9.902;2023-08-06T06:36:36;3.67;;;3.30;;
17524;SDS011;40431;52.198;9.902;2023-08-06T06:39:03;3.87;;;3.40;;
17524;SDS011;40431;52.198;9.902;2023-08-06T06:41:29;4.03;;;3.23;;
17524;SDS011;40431;52.198;9.902;2023-08-06T06:43:59;3.30;;;3.10;;
17524;SDS011;40431;52.198;9.902;2023-08-06T06:46:25;3.97;;;3.60;;
17524;SDS011;40431;52.198;9.902;2023-08-06T06:48:52;3.77;;;3.37;;
17524;SDS011;40431;52.198;9.902;2023-08-06T06:51:20;3.47;;;3.03;;
17524;SDS011;40431;52.198;9.902;2023-08-06T06:53:47;3.57;;;3.10;;
17524;SDS011;40431;52.198;9.902;2023-08-06T06:56:14;3.13;;;2.93;;
17524;SDS011;40431;52.198;9.902;2023-08-06T06:58:40;5.43;;;2.60;;
17524;SDS011;40431;52.198;9.902;2023-08-06T07:01:08;3.57;;;2.50;;
17524;SDS011;40431;52.198;9.902;2023-08-06T07:03:36;2.83;;;2.00;;
17524;SDS011;40431;52.198;9.902;2023-08-06T07:06:03;2.53;;;2.33;;
17524;SDS011;40431;52.198;9.902;2023-08-06T07:08:30;2.60;;;2.43;;
17524;SDS011;40431;52.198;9.902;2023-08-06T07:10:59;2.60;;;2.40;;
17524;SDS011;40431;52.198;9.902;2023-08-06T07:13:27;3.10;;;2.70;;
17524;SDS011;40431;52.198;9.902;2023-08-06T07:15:54;2.93;;;2.67;;
17524;SDS011;40431;52.198;9.902;2023-08-06T07:18:22;3.17;;;2.97;;
17524;SDS011;40431;52.198;9.902;2023-08-06T07:20:48;2.93;;;2.73;;
17524;SDS011;40431;52.198;9.902;2023-08-06T07:23:15;2.77;;;2.57;;
17524;SDS011;40431;52.198;9.902;2023-08-06T07:25:41;4.30;;;2.23;;
17524;SDS011;40431;52.198;9.902;2023-08-06T07:28:08;3.10;;;2.37;;
17524;SDS011;40431;52.198;9.902;2023-08-06T07:30:38;2.90;;;2.63;;
17524;SDS011;40431;52.198;9.902;2023-08-06T07:33:04;2.70;;;2.50;;
17524;SDS011;40431;52.198;9.902;2023-08-06T07:35:32;2.50;;;2.30;;
17524;SDS011;40431;52.198;9.902;2023-08-06T07:37:59;2.60;;;2.30;;
17524;SDS011;40431;52.198;9.902;2023-08-06T07:40:25;2.60;;;2.40;;
17524;SDS011;40431;52.198;9.902;2023-08-06T07:42:52;2.10;;;1.87;;
17524;SDS011;40431;52.198;9.902;2023-08-06T07:45:18;2.10;;;2.00;;
17524;SDS011;40431;52.198;9.902;2023-08-06T07:47:44;2.60;;;2.40;;
17524;SDS011;40431;52.198;9.902;2023-08-06T07:50:11;3.07;;;1.67;;
17524;SDS011;40431;52.198;9.902;2023-08-06T07:52:39;2.23;;;1.90;;
17524;SDS011;40431;52.198;9.902;2023-08-06T07:55:06;2.43;;;2.23;;
17524;SDS011;40431;52.198;9.902;2023-08-06T07:57:33;2.23;;;2.03;;
17524;SDS011;40431;52.198;9.902;2023-08-06T07:59:59;2.00;;;1.90;;
17524;SDS011;40431;52.198;9.902;2023-08-06T08:02:26;2.37;;;2.27;;
17524;SDS011;40431;52.198;9.902;2023-08-06T08:04:52;2.87;;;2.57;;
17524;SDS011;40431;52.198;9.902;2023-08-06T08:07:19;2.07;;;1.97;;
17524;SDS011;40431;52.198;9.902;2023-08-06T08:09:47;2.97;;;2.17;;
17524;SDS011;40431;52.198;9.902;2023-08-06T08:12:13;2.40;;;2.00;;
17524;SDS011;40431;52.198;9.902;2023-08-06T08:14:40;2.07;;;1.97;;
17524;SDS011;40431;52.198;9.902;2023-08-06T08:17:06;3.97;;;2.10;;
17524;SDS011;40431;52.198;9.902;2023-08-06T08:19:33;2.10;;;1.90;;
17524;SDS011;40431;52.198;9.902;2023-08-06T08:21:59;2.13;;;1.77;;
17524;SDS011;40431;52.198;9.902;2023-08-06T08:24:25;2.40;;;2.20;;
17524;SDS011;40431;52.198;9.902;2023-08-06T08:26:53;2.50;;;2.30;;
17524;SDS011;40431;52.198;9.902;2023-08-06T08:29:20;2.40;;;2.20;;
17524;SDS011;40431;52.198;9.902;2023-08-06T08:31:46;2.13;;;2.03;;
17524;SDS011;40431;52.198;9.902;2023-08-06T08:34:14;2.20;;;2.10;;
17524;SDS011;40431;52.198;9.902;2023-08-06T08:36:40;3.63;;;1.80;;
17524;SDS011;40431;52.198;9.902;2023-08-06T08:39:07;2.47;;;2.20;;
17524;SDS011;40431;52.198;9.902;2023-08-06T08:41:33;2.37;;;2.17;;
17524;SDS011;40431;52.198;9.902;2023-08-06T08:44:03;2.50;;;2.30;;
17524;SDS011;40431;52.198;9.902;2023-08-06T08:46:33;2.60;;;2.40;;
17524;SDS011;40431;52.198;9.902;2023-08-06T08:49:02;3.23;;;2.20;;
17524;SDS011;40431;52.198;9.902;2023-08-06T08:51:28;2.20;;;2.10;;
17524;SDS011;40431;52.198;9.902;2023-08-06T08:53:56;2.43;;;2.13;;
17524;SDS011;40431;52.198;9.902;2023-08-06T08:56:23;2.47;;;2.27;;
17524;SDS011;40431;52.198;9.902;2023-08-06T08:58:49;2.20;;;2.00;;
17524;SDS011;40431;52.198;9.902;2023-08-06T09:01:18;2.40;;;2.20;;
17524;SDS011;40431;52.198;9.902;2023-08-06T09:03:46;2.23;;;2.03;;
17524;SDS011;40431;52.198;9.902;2023-08-06T09:06:13;2.40;;;1.83;;
17524;SDS011;40431;52.198;9.902;2023-08-06T09:08:41;4.53;;;2.10;;
17524;SDS011;40431;52.198;9.902;2023-08-06T09:11:13;3.20;;;2.13;;
17524;SDS011;40431;52.198;9.902;2023-08-06T09:13:39;2.20;;;2.00;;
17524;SDS011;40431;52.198;9.902;2023-08-06T09:16:06;2.50;;;2.33;;
17524;SDS011;40431;52.198;9.902;2023-08-06T09:18:33;2.20;;;2.00;;
17524;SDS011;40431;52.198;9.902;2023-08-06T09:21:00;2.13;;;2.00;;
17524;SDS011;40431;52.198;9.902;2023-08-06T09:23:30;1.90;;;1.70;;
17524;SDS011;40431;52.198;9.902;2023-08-06T09:25:58;2.13;;;1.80;;
17524;SDS011;40431;52.198;9.902;2023-08-06T09:28:34;2.43;;;1.93;;
17524;SDS011;40431;52.198;9.902;2023-08-06T09:31:03;1.77;;;1.67;;
17524;SDS011;40431;52.198;9.902;2023-08-06T09:33:30;2.07;;;1.77;;
17524;SDS011;40431;52.198;9.902;2023-08-06T09:35:58;2.03;;;1.93;;
17524;SDS011;40431;52.198;9.902;2023-08-06T09:38:37;2.00;;;1.90;;
17524;SDS011;40431;52.198;9.902;2023-08-06T09:41:05;2.10;;;1.90;;
17524;SDS011;40431;52.198;9.902;2023-08-06T09:43:37;1.90;;;1.70;;
17524;SDS011;40431;52.198;9.902;2023-08-06T09:46:10;2.33;;;1.80;;
17524;SDS011;40431;52.198;9.902;2023-08-06T09:48:38;1.60;;;1.50;;
17524;SDS011;40431;52.198;9.902;2023-08-06T09:51:05;4.03;;;1.87;;
17524;SDS011;40431;52.198;9.902;2023-08-06T09:53:34;2.00;;;1.90;;
17524;SDS011;40431;52.198;9.902;2023-08-06T09:56:02;2.90;;;1.27;;
17524;SDS011;40431;52.198;9.902;2023-08-06T09:58:29;2.30;;;1.70;;
17524;SDS011;40431;52.198;9.902;2023-08-06T10:00:57;1.60;;;1.50;;
17524;SDS011;40431;52.198;9.902;2023-08-06T10:03:25;1.73;;;1.63;;
17524;SDS011;40431;52.198;9.902;2023-08-06T10:05:54;1.90;;;1.50;;
17524;SDS011;40431;52.198;9.902;2023-08-06T10:08:22;2.50;;;1.77;;
17524;SDS011;40431;52.198;9.902;2023-08-06T10:10:49;1.63;;;1.53;;
17524;SDS011;40431;52.198;9.902;2023-08-06T10:13:16;3.43;;;1.70;;
17524;SDS011;40431;52.198;9.902;2023-08-06T10:15:45;1.70;;;1.60;;
17524;SDS011;40431;52.198;9.902;2023-08-06T10:18:12;1.73;;;1.63;;
17524;SDS011;40431;52.198;9.902;2023-08-06T10:20:43;3.03;;;1.70;;
17524;SDS011;40431;52.198;9.902;2023-08-06T10:23:09;2.40;;;1.50;;
17524;SDS011;40431;52.198;9.902;2023-08-06T10:25:41;2.57;;;1.60;;
17524;SDS011;40431;52.198;9.902;2023-08-06T10:28:07;2.87;;;1.57;;
17524;SDS011;40431;52.198;9.902;2023-08-06T10:30:40;1.60;;;1.30;;
17524;SDS011;40431;52.198;9.902;2023-08-06T10:33:08;2.13;;;1.90;;
17524;SDS011;40431;52.198;9.902;2023-08-06T10:35:35;1.57;;;1.47;;
17524;SDS011;40431;52.198;9.902;2023-08-06T10:38:03;1.60;;;1.50;;
17524;SDS011;40431;52.198;9.902;2023-08-06T10:40:31;2.87;;;1.50;;
17524;SDS011;40431;52.198;9.902;2023-08-06T10:42:59;1.93;;;1.83;;
17524;SDS011;40431;52.198;9.902;2023-08-06T10:45:26;2.17;;;1.50;;
17524;SDS011;40431;52.198;9.902;2023-08-06T10:47:55;1.97;;;1.50;;
17524;SDS011;40431;52.198;9.902;2023-08-06T10:50:23;1.60;;;1.50;;
17524;SDS011;40431;52.198;9.902;2023-08-06T10:52:50;2.70;;;1.40;;
17524;SDS011;40431;52.198;9.902;2023-08-06T10:55:23;2.17;;;1.67;;
17524;SDS011;40431;52.198;9.902;2023-08-06T10:57:50;2.83;;;1.50;;
17524;SDS011;40431;52.198;9.902;2023-08-06T11:00:18;2.03;;;1.50;;
17524;SDS011;40431;52.198;9.902;2023-08-06T11:02:47;1.60;;;1.50;;
17524;SDS011;40431;52.198;9.902;2023-08-06T11:05:14;1.40;;;1.30;;
17524;SDS011;40431;52.198;9.902;2023-08-06T11:07:40;1.50;;;1.30;;
17524;SDS011;40431;52.198;9.902;2023-08-06T11:10:08;2.47;;;1.90;;
17524;SDS011;40431;52.198;9.902;2023-08-06T11:12:35;1.80;;;1.50;;
17524;SDS011;40431;52.198;9.902;2023-08-06T11:15:02;1.50;;;1.40;;
17524;SDS011;40431;52.198;9.902;2023-08-06T11:17:31;1.67;;;1.57;;
17524;SDS011;40431;52.198;9.902;2023-08-06T11:19:59;1.73;;;1.47;;
17524;SDS011;40431;52.198;9.902;2023-08-06T11:22:26;1.90;;;1.20;;
17524;SDS011;40431;52.198;9.902;2023-08-06T11:24:53;2.80;;;1.57;;
17524;SDS011;40431;52.198;9.902;2023-08-06T11:27:20;1.47;;;1.37;;
17524;SDS011;40431;52.198;9.902;2023-08-06T11:29:46;1.50;;;1.40;;
17524;SDS011;40431;52.198;9.902;2023-08-06T11:32:13;1.43;;;1.33;;
17524;SDS011;40431;52.198;9.902;2023-08-06T11:34:40;1.30;;;1.20;;
17524;SDS011;40431;52.198;9.902;2023-08-06T11:37:07;1.97;;;1.30;;
17524;SDS011;40431;52.198;9.902;2023-08-06T11:39:33;1.37;;;1.27;;
17524;SDS011;40431;52.198;9.902;2023-08-06T11:42:02;1.47;;;1.37;;
17524;SDS011;40431;52.198;9.902;2023-08-06T11:44:29;1.50;;;1.40;;
17524;SDS011;40431;52.198;9.902;2023-08-06T11:46:57;1.73;;;1.10;;
17524;SDS011;40431;52.198;9.902;2023-08-06T11:49:39;2.20;;;1.40;;
17524;SDS011;40431;52.198;9.902;2023-08-06T11:52:18;1.40;;;1.13;;
17524;SDS011;40431;52.198;9.902;2023-08-06T11:54:46;1.73;;;1.57;;
17524;SDS011;40431;52.198;9.902;2023-08-06T11:57:13;1.50;;;1.40;;
17524;SDS011;40431;52.198;9.902;2023-08-06T11:59:41;2.33;;;1.40;;
17524;SDS011;40431;52.198;9.902;2023-08-06T12:02:08;1.60;;;1.50;;
17524;SDS011;40431;52.198;9.902;2023-08-06T12:07:28;2.10;;;1.47;;
17524;SDS011;40431;52.198;9.902;2023-08-06T12:09:55;1.70;;;1.10;;
17524;SDS011;40431;52.198;9.902;2023-08-06T12:12:21;2.00;;;1.20;;
17524;SDS011;40431;52.198;9.902;2023-08-06T12:14:48;1.80;;;1.33;;
17524;SDS011;40431;52.198;9.902;2023-08-06T12:17:14;1.47;;;1.37;;
17524;SDS011;40431;52.198;9.902;2023-08-06T12:19:40;1.57;;;1.30;;
17524;SDS011;40431;52.198;9.902;2023-08-06T12:22:08;2.70;;;1.20;;
17524;SDS011;40431;52.198;9.902;2023-08-06T12:24:34;6.23;;;1.43;;
17524;SDS011;40431;52.198;9.902;2023-08-06T12:27:01;1.40;;;1.30;;
17524;SDS011;40431;52.198;9.902;2023-08-06T12:29:28;1.40;;;1.30;;
17524;SDS011;40431;52.198;9.902;2023-08-06T12:31:54;1.30;;;1.20;;
17524;SDS011;40431;52.198;9.902;2023-08-06T12:34:20;3.43;;;1.40;;
17524;SDS011;40431;52.198;9.902;2023-08-06T12:36:47;1.23;;;1.13;;
17524;SDS011;40431;52.198;9.902;2023-08-06T12:39:14;1.40;;;1.30;;
17524;SDS011;40431;52.198;9.902;2023-08-06T12:41:41;1.50;;;1.23;;
17524;SDS011;40431;52.198;9.902;2023-08-06T12:44:08;1.10;;;1.10;;
17524;SDS011;40431;52.198;9.902;2023-08-06T12:46:35;1.20;;;1.10;;
17524;SDS011;40431;52.198;9.902;2023-08-06T12:49:01;1.57;;;1.47;;
17524;SDS011;40431;52.198;9.902;2023-08-06T12:51:27;1.60;;;1.50;;
17524;SDS011;40431;52.198;9.902;2023-08-06T12:53:54;2.63;;;1.27;;
17524;SDS011;40431;52.198;9.902;2023-08-06T12:56:21;1.73;;;1.60;;
17524;SDS011;40431;52.198;9.902;2023-08-06T12:58:48;2.03;;;1.60;;
17524;SDS011;40431;52.198;9.902;2023-08-06T13:01:14;1.70;;;1.60;;
17524;SDS011;40431;52.198;9.902;2023-08-06T13:03:41;1.60;;;1.50;;
17524;SDS011;40431;52.198;9.902;2023-08-06T13:06:08;1.50;;;1.40;;
17524;SDS011;40431;52.198;9.902;2023-08-06T13:08:34;1.80;;;1.70;;
17524;SDS011;40431;52.198;9.902;2023-08-06T13:11:01;4.33;;;1.67;;
17524;SDS011;40431;52.198;9.902;2023-08-06T13:13:29;1.70;;;1.60;;
17524;SDS011;40431;52.198;9.902;2023-08-06T13:15:55;2.20;;;1.80;;
17524;SDS011;40431;52.198;9.902;2023-08-06T13:18:21;1.83;;;1.73;;
17524;SDS011;40431;52.198;9.902;2023-08-06T13:20:48;1.83;;;1.73;;
17524;SDS011;40431;52.198;9.902;2023-08-06T13:23:17;2.73;;;1.60;;
17524;SDS011;40431;52.198;9.902;2023-08-06T13:25:43;1.67;;;1.50;;
17524;SDS011;40431;52.198;9.902;2023-08-06T13:28:10;3.60;;;1.87;;
17524;SDS011;40431;52.198;9.902;2023-08-06T13:30:38;1.80;;;1.70;;
17524;SDS011;40431;52.198;9.902;2023-08-06T13:33:07;1.70;;;1.60;;
17524;SDS011;40431;52.198;9.902;2023-08-06T13:35:33;2.57;;;1.63;;
17524;SDS011;40431;52.198;9.902;2023-08-06T13:38:00;2.30;;;2.10;;
17524;SDS011;40431;52.198;9.902;2023-08-06T13:40:27;1.80;;;1.70;;
17524;SDS011;40431;52.198;9.902;2023-08-06T13:42:54;2.23;;;1.70;;
17524;SDS011;40431;52.198;9.902;2023-08-06T13:45:21;2.00;;;1.90;;
17524;SDS011;40431;52.198;9.902;2023-08-06T13:47:49;2.60;;;1.70;;
17524;SDS011;40431;52.198;9.902;2023-08-06T13:50:15;2.50;;;1.87;;
17524;SDS011;40431;52.198;9.902;2023-08-06T13:52:42;1.67;;;1.57;;
17524;SDS011;40431;52.198;9.902;2023-08-06T13:55:08;1.90;;;1.80;;
17524;SDS011;40431;52.198;9.902;2023-08-06T13:57:35;1.67;;;1.50;;
17524;SDS011;40431;52.198;9.902;2023-08-06T14:00:01;2.73;;;1.90;;
17524;SDS011;40431;52.198;9.902;2023-08-06T14:02:28;1.80;;;1.70;;
17524;SDS011;40431;52.198;9.902;2023-08-06T14:04:56;2.07;;;1.70;;
17524;SDS011;40431;52.198;9.902;2023-08-06T14:07:22;1.80;;;1.70;;
17524;SDS011;40431;52.198;9.902;2023-08-06T14:09:49;2.37;;;1.90;;
17524;SDS011;40431;52.198;9.902;2023-08-06T14:12:15;2.27;;;1.90;;
17524;SDS011;40431;52.198;9.902;2023-08-06T14:14:42;2.20;;;2.03;;
17524;SDS011;40431;52.198;9.902;2023-08-06T14:17:08;3.53;;;1.90;;
17524;SDS011;40431;52.198;9.902;2023-08-06T14:19:34;1.73;;;1.63;;
17524;SDS011;40431;52.198;9.902;2023-08-06T14:22:02;2.07;;;1.87;;
17524;SDS011;40431;52.198;9.902;2023-08-06T14:24:28;2.73;;;1.60;;
17524;SDS011;40431;52.198;9.902;2023-08-06T14:26:55;1.47;;;1.37;;
17524;SDS011;40431;52.198;9.902;2023-08-06T14:29:21;2.23;;;2.13;;
17524;SDS011;40431;52.198;9.902;2023-08-06T14:31:47;2.20;;;2.00;;
17524;SDS011;40431;52.198;9.902;2023-08-06T14:34:14;2.77;;;1.60;;
17524;SDS011;40431;52.198;9.902;2023-08-06T14:36:40;1.77;;;1.67;;
17524;SDS011;40431;52.198;9.902;2023-08-06T14:39:08;2.00;;;1.90;;
17524;SDS011;40431;52.198;9.902;2023-08-06T14:41:34;1.87;;;1.77;;
17524;SDS011;40431;52.198;9.902;2023-08-06T14:44:01;1.90;;;1.80;;
17524;SDS011;40431;52.198;9.902;2023-08-06T14:46:27;1.80;;;1.70;;
17524;SDS011;40431;52.198;9.902;2023-08-06T14:48:54;1.90;;;1.80;;
17524;SDS011;40431;52.198;9.902;2023-08-06T14:51:20;1.80;;;1.70;;